sensor_id;sensor_type;location;lat;lon;timestamp;P1;durP1;ratioP1;P2;durP2;ratioP2
20456;SDS011;10387;51.102;6.848;2023-06-22T00:00:49;5.73;;;4.80;;
20456;SDS011;10387;51.102;6.848;2023-06-22T00:03:17;4.80;;;4.40;;
20456;SDS011;10387;51.102;6.848;2023-06-22T00:05:43;5.90;;;5.23;;
20456;SDS011;10387;51.102;6.848;2023-06-22T00:08:09;4.57;;;4.20;;
20456;SDS011;10387;51.102;6.848;2023-06-22T00:10:35;5.20;;;4.70;;
20456;SDS011;10387;51.102;6.848;2023-06-22T00:13:02;4.93;;;4.47;;
20456;SDS011;10387;51.102;6.848;2023-06-22T00:15:28;4.93;;;4.43;;
20456;SDS011;10387;51.102;6.848;2023-06-22T00:17:54;5.17;;;4.67;;
20456;SDS011;10387;51.102;6.848;2023-06-22T00:20:22;5.27;;;4.77;;
20456;SDS011;10387;51.102;6.848;2023-06-22T00:22:53;5.80;;;4.80;;
20456;SDS011;10387;51.102;6.848;2023-06-22T00:25:19;6.17;;;4.67;;
20456;SDS011;10387;51.102;6.848;2023-06-22T00:27:45;5.50;;;4.33;;
20456;SDS011;10387;51.102;6.848;2023-06-22T00:30:12;5.77;;;5.03;;
20456;SDS011;10387;51.102;6.848;2023-06-22T00:32:38;5.83;;;4.93;;
20456;SDS011;10387;51.102;6.848;2023-06-22T00:35:06;5.83;;;5.07;;
20456;SDS011;10387;51.102;6.848;2023-06-22T00:37:33;5.23;;;4.50;;
20456;SDS011;10387;51.102;6.848;2023-06-22T00:40:01;7.23;;;4.70;;
20456;SDS011;10387;51.102;6.848;2023-06-22T00:42:27;5.23;;;4.57;;
20456;SDS011;10387;51.102;6.848;2023-06-22T00:44:54;4.90;;;4.40;;
20456;SDS011;10387;51.102;6.848;2023-06-22T00:47:20;6.43;;;5.60;;
20456;SDS011;10387;51.102;6.848;2023-06-22T00:49:47;5.93;;;4.67;;
20456;SDS011;10387;51.102;6.848;2023-06-22T00:52:13;6.07;;;5.40;;
20456;SDS011;10387;51.102;6.848;2023-06-22T00:54:46;6.33;;;5.13;;
20456;SDS011;10387;51.102;6.848;2023-06-22T00:57:14;5.93;;;4.83;;
20456;SDS011;10387;51.102;6.848;2023-06-22T00:59:43;6.53;;;4.80;;
20456;SDS011;10387;51.102;6.848;2023-06-22T01:02:10;7.40;;;5.00;;
20456;SDS011;10387;51.102;6.848;2023-06-22T01:04:36;6.63;;;4.97;;
20456;SDS011;10387;51.102;6.848;2023-06-22T01:09:38;6.13;;;4.77;;
20456;SDS011;10387;51.102;6.848;2023-06-22T01:12:05;5.13;;;4.63;;
20456;SDS011;10387;51.102;6.848;2023-06-22T01:14:42;5.03;;;4.53;;
20456;SDS011;10387;51.102;6.848;2023-06-22T01:17:09;6.07;;;5.43;;
20456;SDS011;10387;51.102;6.848;2023-06-22T01:19:51;5.20;;;4.70;;
20456;SDS011;10387;51.102;6.848;2023-06-22T01:22:26;5.70;;;5.10;;
20456;SDS011;10387;51.102;6.848;2023-06-22T01:25:02;4.97;;;4.47;;
20456;SDS011;10387;51.102;6.848;2023-06-22T01:30:00;6.73;;;4.70;;
20456;SDS011;10387;51.102;6.848;2023-06-22T01:32:29;5.27;;;4.77;;
20456;SDS011;10387;51.102;6.848;2023-06-22T01:34:57;8.00;;;5.47;;
20456;SDS011;10387;51.102;6.848;2023-06-22T01:37:24;5.67;;;4.83;;
20456;SDS011;10387;51.102;6.848;2023-06-22T01:39:50;7.70;;;5.13;;
20456;SDS011;10387;51.102;6.848;2023-06-22T01:42:17;6.77;;;5.10;;
20456;SDS011;10387;51.102;6.848;2023-06-22T01:44:43;5.37;;;4.80;;
20456;SDS011;10387;51.102;6.848;2023-06-22T01:47:09;5.63;;;5.03;;
20456;SDS011;10387;51.102;6.848;2023-06-22T01:49:35;6.00;;;5.40;;
20456;SDS011;10387;51.102;6.848;2023-06-22T01:52:03;7.10;;;5.57;;
20456;SDS011;10387;51.102;6.848;2023-06-22T01:54:30;6.63;;;5.80;;
20456;SDS011;10387;51.102;6.848;2023-06-22T01:56:56;6.07;;;5.57;;
20456;SDS011;10387;51.102;6.848;2023-06-22T01:59:26;6.90;;;5.27;;
20456;SDS011;10387;51.102;6.848;2023-06-22T02:01:57;6.37;;;5.40;;
20456;SDS011;10387;51.102;6.848;2023-06-22T02:04:27;6.40;;;5.40;;
20456;SDS011;10387;51.102;6.848;2023-06-22T02:06:58;6.63;;;6.03;;
20456;SDS011;10387;51.102;6.848;2023-06-22T02:09:25;6.40;;;5.80;;
20456;SDS011;10387;51.102;6.848;2023-06-22T02:11:53;6.90;;;6.10;;
20456;SDS011;10387;51.102;6.848;2023-06-22T02:14:20;7.43;;;6.70;;
20456;SDS011;10387;51.102;6.848;2023-06-22T02:16:47;7.30;;;6.60;;
20456;SDS011;10387;51.102;6.848;2023-06-22T02:19:14;7.37;;;6.17;;
20456;SDS011;10387;51.102;6.848;2023-06-22T02:21:41;7.40;;;6.23;;
20456;SDS011;10387;51.102;6.848;2023-06-22T02:24:07;6.33;;;5.80;;
20456;SDS011;10387;51.102;6.848;2023-06-22T02:26:33;8.10;;;6.80;;
20456;SDS011;10387;51.102;6.848;2023-06-22T02:29:01;7.20;;;6.60;;
20456;SDS011;10387;51.102;6.848;2023-06-22T02:31:27;8.00;;;7.23;;
20456;SDS011;10387;51.102;6.848;2023-06-22T02:33:56;7.23;;;6.53;;
20456;SDS011;10387;51.102;6.848;2023-06-22T02:36:23;7.43;;;6.57;;
20456;SDS011;10387;51.102;6.848;2023-06-22T02:38:50;8.83;;;7.07;;
20456;SDS011;10387;51.102;6.848;2023-06-22T02:41:16;8.00;;;6.53;;
20456;SDS011;10387;51.102;6.848;2023-06-22T02:43:46;7.77;;;6.97;;
20456;SDS011;10387;51.102;6.848;2023-06-22T02:46:13;7.87;;;7.07;;
20456;SDS011;10387;51.102;6.848;2023-06-22T02:48:40;7.27;;;6.57;;
20456;SDS011;10387;51.102;6.848;2023-06-22T02:51:07;7.97;;;7.10;;
20456;SDS011;10387;51.102;6.848;2023-06-22T02:53:35;7.87;;;7.00;;
20456;SDS011;10387;51.102;6.848;2023-06-22T02:56:04;7.47;;;6.70;;
20456;SDS011;10387;51.102;6.848;2023-06-22T02:58:31;8.50;;;7.70;;
20456;SDS011;10387;51.102;6.848;2023-06-22T03:01:05;8.13;;;7.37;;
20456;SDS011;10387;51.102;6.848;2023-06-22T03:03:32;7.67;;;6.97;;
20456;SDS011;10387;51.102;6.848;2023-06-22T03:05:58;7.17;;;6.50;;
20456;SDS011;10387;51.102;6.848;2023-06-22T03:08:26;9.50;;;7.30;;
20456;SDS011;10387;51.102;6.848;2023-06-22T03:10:53;6.87;;;6.07;;
20456;SDS011;10387;51.102;6.848;2023-06-22T03:13:19;7.57;;;6.83;;
20456;SDS011;10387;51.102;6.848;2023-06-22T03:15:45;8.13;;;7.33;;
20456;SDS011;10387;51.102;6.848;2023-06-22T03:18:11;8.60;;;7.70;;
20456;SDS011;10387;51.102;6.848;2023-06-22T03:20:37;7.70;;;6.90;;
20456;SDS011;10387;51.102;6.848;2023-06-22T03:23:04;8.43;;;7.63;;
20456;SDS011;10387;51.102;6.848;2023-06-22T03:25:31;8.17;;;7.37;;
20456;SDS011;10387;51.102;6.848;2023-06-22T03:28:00;8.53;;;7.73;;
20456;SDS011;10387;51.102;6.848;2023-06-22T03:30:26;8.63;;;6.87;;
20456;SDS011;10387;51.102;6.848;2023-06-22T03:32:52;7.13;;;6.43;;
20456;SDS011;10387;51.102;6.848;2023-06-22T03:35:18;7.63;;;6.93;;
20456;SDS011;10387;51.102;6.848;2023-06-22T03:37:45;7.60;;;6.90;;
20456;SDS011;10387;51.102;6.848;2023-06-22T03:40:11;7.67;;;6.97;;
20456;SDS011;10387;51.102;6.848;2023-06-22T03:42:39;7.67;;;6.87;;
20456;SDS011;10387;51.102;6.848;2023-06-22T03:45:05;7.63;;;6.97;;
20456;SDS011;10387;51.102;6.848;2023-06-22T03:47:32;9.83;;;7.07;;
20456;SDS011;10387;51.102;6.848;2023-06-22T03:49:58;9.37;;;7.50;;
20456;SDS011;10387;51.102;6.848;2023-06-22T03:52:25;8.17;;;7.37;;
20456;SDS011;10387;51.102;6.848;2023-06-22T03:54:52;8.83;;;6.87;;
20456;SDS011;10387;51.102;6.848;2023-06-22T03:57:18;8.00;;;7.30;;
20456;SDS011;10387;51.102;6.848;2023-06-22T03:59:44;9.17;;;7.77;;
20456;SDS011;10387;51.102;6.848;2023-06-22T04:02:10;7.53;;;6.83;;
20456;SDS011;10387;51.102;6.848;2023-06-22T04:04:36;7.80;;;7.00;;
20456;SDS011;10387;51.102;6.848;2023-06-22T04:07:04;9.73;;;7.37;;
20456;SDS011;10387;51.102;6.848;2023-06-22T04:09:30;7.93;;;6.80;;
20456;SDS011;10387;51.102;6.848;2023-06-22T04:11:56;8.37;;;7.57;;
20456;SDS011;10387;51.102;6.848;2023-06-22T04:14:22;8.13;;;7.40;;
20456;SDS011;10387;51.102;6.848;2023-06-22T04:16:48;8.03;;;6.90;;
20456;SDS011;10387;51.102;6.848;2023-06-22T04:19:14;7.80;;;7.10;;
20456;SDS011;10387;51.102;6.848;2023-06-22T04:21:43;7.07;;;6.47;;
20456;SDS011;10387;51.102;6.848;2023-06-22T04:24:10;8.40;;;7.17;;
20456;SDS011;10387;51.102;6.848;2023-06-22T04:26:36;7.63;;;6.93;;
20456;SDS011;10387;51.102;6.848;2023-06-22T04:29:03;7.93;;;7.07;;
20456;SDS011;10387;51.102;6.848;2023-06-22T04:31:33;9.03;;;7.37;;
20456;SDS011;10387;51.102;6.848;2023-06-22T04:34:01;7.97;;;7.17;;
20456;SDS011;10387;51.102;6.848;2023-06-22T04:36:34;8.10;;;7.27;;
20456;SDS011;10387;51.102;6.848;2023-06-22T04:39:03;9.47;;;7.37;;
20456;SDS011;10387;51.102;6.848;2023-06-22T04:41:30;8.27;;;7.07;;
20456;SDS011;10387;51.102;6.848;2023-06-22T04:44:02;11.00;;;6.77;;
20456;SDS011;10387;51.102;6.848;2023-06-22T04:46:30;8.43;;;7.57;;
20456;SDS011;10387;51.102;6.848;2023-06-22T04:48:56;7.00;;;6.30;;
20456;SDS011;10387;51.102;6.848;2023-06-22T04:51:22;7.90;;;6.30;;
20456;SDS011;10387;51.102;6.848;2023-06-22T04:53:54;7.07;;;6.30;;
20456;SDS011;10387;51.102;6.848;2023-06-22T04:56:26;8.83;;;6.83;;
20456;SDS011;10387;51.102;6.848;2023-06-22T04:58:55;7.83;;;7.00;;
20456;SDS011;10387;51.102;6.848;2023-06-22T05:01:22;7.37;;;6.67;;
20456;SDS011;10387;51.102;6.848;2023-06-22T05:03:48;7.30;;;6.47;;
20456;SDS011;10387;51.102;6.848;2023-06-22T05:06:15;7.33;;;6.40;;
20456;SDS011;10387;51.102;6.848;2023-06-22T05:08:41;6.77;;;6.17;;
20456;SDS011;10387;51.102;6.848;2023-06-22T05:11:07;7.60;;;6.83;;
20456;SDS011;10387;51.102;6.848;2023-06-22T05:13:33;7.43;;;6.73;;
20456;SDS011;10387;51.102;6.848;2023-06-22T05:15:59;8.30;;;6.87;;
20456;SDS011;10387;51.102;6.848;2023-06-22T05:18:29;7.53;;;6.10;;
20456;SDS011;10387;51.102;6.848;2023-06-22T05:20:55;8.23;;;6.63;;
20456;SDS011;10387;51.102;6.848;2023-06-22T05:23:21;8.00;;;6.60;;
20456;SDS011;10387;51.102;6.848;2023-06-22T05:25:47;8.47;;;6.60;;
20456;SDS011;10387;51.102;6.848;2023-06-22T05:28:13;7.50;;;6.80;;
20456;SDS011;10387;51.102;6.848;2023-06-22T05:30:39;6.68;;;6.03;;
20456;SDS011;10387;51.102;6.848;2023-06-22T05:33:05;7.47;;;6.13;;
20456;SDS011;10387;51.102;6.848;2023-06-22T05:35:31;6.77;;;6.00;;
20456;SDS011;10387;51.102;6.848;2023-06-22T05:37:57;6.23;;;5.63;;
20456;SDS011;10387;51.102;6.848;2023-06-22T05:40:23;6.23;;;5.63;;
20456;SDS011;10387;51.102;6.848;2023-06-22T05:42:50;6.87;;;6.13;;
20456;SDS011;10387;51.102;6.848;2023-06-22T05:45:16;6.35;;;5.70;;
20456;SDS011;10387;51.102;6.848;2023-06-22T05:47:42;6.87;;;6.20;;
20456;SDS011;10387;51.102;6.848;2023-06-22T05:50:08;6.20;;;5.60;;
20456;SDS011;10387;51.102;6.848;2023-06-22T05:52:34;7.07;;;6.37;;
20456;SDS011;10387;51.102;6.848;2023-06-22T05:55:01;7.07;;;6.37;;
20456;SDS011;10387;51.102;6.848;2023-06-22T05:57:28;6.90;;;6.30;;
20456;SDS011;10387;51.102;6.848;2023-06-22T05:59:54;7.67;;;7.00;;
20456;SDS011;10387;51.102;6.848;2023-06-22T06:02:20;7.37;;;6.67;;
20456;SDS011;10387;51.102;6.848;2023-06-22T06:04:46;7.17;;;6.47;;
20456;SDS011;10387;51.102;6.848;2023-06-22T06:07:12;11.07;;;7.70;;
20456;SDS011;10387;51.102;6.848;2023-06-22T06:09:38;9.93;;;7.80;;
20456;SDS011;10387;51.102;6.848;2023-06-22T06:12:04;10.87;;;9.37;;
20456;SDS011;10387;51.102;6.848;2023-06-22T06:14:30;9.90;;;8.90;;
20456;SDS011;10387;51.102;6.848;2023-06-22T06:16:56;13.50;;;9.80;;
20456;SDS011;10387;51.102;6.848;2023-06-22T06:19:22;11.50;;;10.03;;
20456;SDS011;10387;51.102;6.848;2023-06-22T06:21:49;13.80;;;11.17;;
20456;SDS011;10387;51.102;6.848;2023-06-22T06:24:15;12.93;;;11.47;;
20456;SDS011;10387;51.102;6.848;2023-06-22T06:26:41;15.33;;;11.07;;
20456;SDS011;10387;51.102;6.848;2023-06-22T06:29:07;17.27;;;12.17;;
20456;SDS011;10387;51.102;6.848;2023-06-22T06:31:33;15.50;;;12.30;;
20456;SDS011;10387;51.102;6.848;2023-06-22T06:34:00;16.90;;;12.53;;
20456;SDS011;10387;51.102;6.848;2023-06-22T06:36:26;13.80;;;12.43;;
20456;SDS011;10387;51.102;6.848;2023-06-22T06:38:52;14.00;;;12.60;;
20456;SDS011;10387;51.102;6.848;2023-06-22T06:41:18;13.80;;;12.27;;
20456;SDS011;10387;51.102;6.848;2023-06-22T06:43:45;14.73;;;13.33;;
20456;SDS011;10387;51.102;6.848;2023-06-22T06:46:11;15.80;;;14.20;;
20456;SDS011;10387;51.102;6.848;2023-06-22T06:48:37;16.13;;;14.10;;
20456;SDS011;10387;51.102;6.848;2023-06-22T06:51:04;17.97;;;16.07;;
20456;SDS011;10387;51.102;6.848;2023-06-22T06:53:34;16.70;;;15.00;;
20456;SDS011;10387;51.102;6.848;2023-06-22T06:56:00;18.30;;;16.40;;
20456;SDS011;10387;51.102;6.848;2023-06-22T06:58:26;17.00;;;15.40;;
20456;SDS011;10387;51.102;6.848;2023-06-22T07:00:53;16.63;;;14.93;;
20456;SDS011;10387;51.102;6.848;2023-06-22T07:03:19;16.80;;;15.00;;
20456;SDS011;10387;51.102;6.848;2023-06-22T07:05:45;16.20;;;14.50;;
20456;SDS011;10387;51.102;6.848;2023-06-22T07:08:11;16.13;;;14.53;;
20456;SDS011;10387;51.102;6.848;2023-06-22T07:10:37;16.80;;;15.00;;
20456;SDS011;10387;51.102;6.848;2023-06-22T07:13:03;18.00;;;16.20;;
20456;SDS011;10387;51.102;6.848;2023-06-22T07:15:29;15.47;;;13.83;;
20456;SDS011;10387;51.102;6.848;2023-06-22T07:17:55;15.23;;;13.63;;
20456;SDS011;10387;51.102;6.848;2023-06-22T07:20:21;16.73;;;15.03;;
20456;SDS011;10387;51.102;6.848;2023-06-22T07:22:47;16.87;;;15.20;;
20456;SDS011;10387;51.102;6.848;2023-06-22T07:25:13;16.37;;;14.67;;
20456;SDS011;10387;51.102;6.848;2023-06-22T07:27:43;15.70;;;14.20;;
20456;SDS011;10387;51.102;6.848;2023-06-22T07:30:10;16.53;;;14.50;;
20456;SDS011;10387;51.102;6.848;2023-06-22T07:32:36;15.70;;;14.13;;
20456;SDS011;10387;51.102;6.848;2023-06-22T07:35:03;16.00;;;14.30;;
20456;SDS011;10387;51.102;6.848;2023-06-22T07:37:30;14.87;;;13.33;;
20456;SDS011;10387;51.102;6.848;2023-06-22T07:39:57;15.83;;;14.33;;
20456;SDS011;10387;51.102;6.848;2023-06-22T07:42:26;18.13;;;13.90;;
20456;SDS011;10387;51.102;6.848;2023-06-22T07:44:57;18.47;;;14.37;;
20456;SDS011;10387;51.102;6.848;2023-06-22T07:47:24;15.90;;;14.23;;
20456;SDS011;10387;51.102;6.848;2023-06-22T07:49:53;15.83;;;14.13;;
20456;SDS011;10387;51.102;6.848;2023-06-22T07:52:20;15.93;;;14.47;;
20456;SDS011;10387;51.102;6.848;2023-06-22T07:54:47;15.60;;;14.03;;
20456;SDS011;10387;51.102;6.848;2023-06-22T07:57:13;16.03;;;14.33;;
20456;SDS011;10387;51.102;6.848;2023-06-22T07:59:39;16.07;;;14.57;;
20456;SDS011;10387;51.102;6.848;2023-06-22T08:02:05;16.13;;;14.40;;
20456;SDS011;10387;51.102;6.848;2023-06-22T08:04:33;16.30;;;14.60;;
20456;SDS011;10387;51.102;6.848;2023-06-22T08:07:00;15.77;;;14.17;;
20456;SDS011;10387;51.102;6.848;2023-06-22T08:09:28;15.87;;;14.17;;
20456;SDS011;10387;51.102;6.848;2023-06-22T08:11:54;16.83;;;15.10;;
20456;SDS011;10387;51.102;6.848;2023-06-22T08:14:22;15.73;;;14.13;;
20456;SDS011;10387;51.102;6.848;2023-06-22T08:16:48;15.30;;;13.80;;
20456;SDS011;10387;51.102;6.848;2023-06-22T08:19:14;16.57;;;14.87;;
20456;SDS011;10387;51.102;6.848;2023-06-22T08:21:42;16.13;;;14.50;;
20456;SDS011;10387;51.102;6.848;2023-06-22T08:24:08;15.98;;;14.38;;
20456;SDS011;10387;51.102;6.848;2023-06-22T08:26:34;14.43;;;12.95;;
20456;SDS011;10387;51.102;6.848;2023-06-22T08:29:06;17.50;;;14.15;;
20456;SDS011;10387;51.102;6.848;2023-06-22T08:31:32;14.43;;;12.98;;
20456;SDS011;10387;51.102;6.848;2023-06-22T08:34:00;14.30;;;12.80;;
20456;SDS011;10387;51.102;6.848;2023-06-22T08:36:26;13.13;;;11.88;;
20456;SDS011;10387;51.102;6.848;2023-06-22T08:38:55;12.63;;;11.02;;
20456;SDS011;10387;51.102;6.848;2023-06-22T08:41:26;11.38;;;10.32;;
20456;SDS011;10387;51.102;6.848;2023-06-22T08:43:53;10.23;;;9.23;;
20456;SDS011;10387;51.102;6.848;2023-06-22T08:46:19;10.18;;;9.27;;
20456;SDS011;10387;51.102;6.848;2023-06-22T08:48:48;10.63;;;9.52;;
20456;SDS011;10387;51.102;6.848;2023-06-22T08:51:15;10.45;;;9.02;;
20456;SDS011;10387;51.102;6.848;2023-06-22T08:53:43;10.40;;;9.13;;
20456;SDS011;10387;51.102;6.848;2023-06-22T08:56:10;10.65;;;9.55;;
20456;SDS011;10387;51.102;6.848;2023-06-22T08:58:36;10.13;;;9.13;;
20456;SDS011;10387;51.102;6.848;2023-06-22T09:01:02;9.45;;;8.55;;
20456;SDS011;10387;51.102;6.848;2023-06-22T09:03:29;9.85;;;8.95;;
20456;SDS011;10387;51.102;6.848;2023-06-22T09:05:57;9.40;;;8.50;;
20456;SDS011;10387;51.102;6.848;2023-06-22T09:08:23;9.35;;;8.48;;
20456;SDS011;10387;51.102;6.848;2023-06-22T09:10:49;10.00;;;9.02;;
20456;SDS011;10387;51.102;6.848;2023-06-22T09:13:16;10.48;;;9.48;;
20456;SDS011;10387;51.102;6.848;2023-06-22T09:15:43;10.25;;;9.32;;
20456;SDS011;10387;51.102;6.848;2023-06-22T09:18:12;9.52;;;8.55;;
20456;SDS011;10387;51.102;6.848;2023-06-22T09:20:39;8.93;;;8.15;;
20456;SDS011;10387;51.102;6.848;2023-06-22T09:23:05;9.02;;;8.23;;
20456;SDS011;10387;51.102;6.848;2023-06-22T09:25:31;9.65;;;8.73;;
20456;SDS011;10387;51.102;6.848;2023-06-22T09:27:57;10.45;;;9.45;;
20456;SDS011;10387;51.102;6.848;2023-06-22T09:30:23;10.63;;;9.52;;
20456;SDS011;10387;51.102;6.848;2023-06-22T09:32:49;9.38;;;8.48;;
20456;SDS011;10387;51.102;6.848;2023-06-22T09:35:16;9.60;;;8.70;;
20456;SDS011;10387;51.102;6.848;2023-06-22T09:37:42;10.30;;;9.30;;
20456;SDS011;10387;51.102;6.848;2023-06-22T09:40:10;9.40;;;8.60;;
20456;SDS011;10387;51.102;6.848;2023-06-22T09:42:38;9.63;;;8.65;;
20456;SDS011;10387;51.102;6.848;2023-06-22T09:45:04;9.80;;;8.77;;
20456;SDS011;10387;51.102;6.848;2023-06-22T09:47:30;8.65;;;7.93;;
20456;SDS011;10387;51.102;6.848;2023-06-22T09:49:56;8.70;;;7.90;;
20456;SDS011;10387;51.102;6.848;2023-06-22T09:52:24;9.23;;;8.30;;
20456;SDS011;10387;51.102;6.848;2023-06-22T09:54:50;9.38;;;8.48;;
20456;SDS011;10387;51.102;6.848;2023-06-22T09:57:17;9.57;;;8.65;;
20456;SDS011;10387;51.102;6.848;2023-06-22T09:59:43;10.88;;;9.15;;
20456;SDS011;10387;51.102;6.848;2023-06-22T10:02:09;10.05;;;9.15;;
20456;SDS011;10387;51.102;6.848;2023-06-22T10:04:35;9.93;;;9.02;;
20456;SDS011;10387;51.102;6.848;2023-06-22T10:07:01;10.48;;;9.57;;
20456;SDS011;10387;51.102;6.848;2023-06-22T10:09:28;9.98;;;9.07;;
20456;SDS011;10387;51.102;6.848;2023-06-22T10:11:54;10.20;;;9.30;;
20456;SDS011;10387;51.102;6.848;2023-06-22T10:14:20;11.00;;;9.80;;
20456;SDS011;10387;51.102;6.848;2023-06-22T10:16:46;10.80;;;9.80;;
20456;SDS011;10387;51.102;6.848;2023-06-22T10:19:12;11.48;;;10.38;;
20456;SDS011;10387;51.102;6.848;2023-06-22T10:21:38;11.55;;;10.35;;
20456;SDS011;10387;51.102;6.848;2023-06-22T10:24:04;12.45;;;11.15;;
20456;SDS011;10387;51.102;6.848;2023-06-22T10:26:34;12.70;;;11.40;;
20456;SDS011;10387;51.102;6.848;2023-06-22T10:29:01;12.95;;;11.70;;
20456;SDS011;10387;51.102;6.848;2023-06-22T10:31:27;12.50;;;11.30;;
20456;SDS011;10387;51.102;6.848;2023-06-22T10:33:53;15.45;;;12.63;;
20456;SDS011;10387;51.102;6.848;2023-06-22T10:36:20;13.15;;;11.00;;
20456;SDS011;10387;51.102;6.848;2023-06-22T10:38:46;13.35;;;12.07;;
20456;SDS011;10387;51.102;6.848;2023-06-22T10:41:14;13.02;;;11.82;;
20456;SDS011;10387;51.102;6.848;2023-06-22T10:43:40;14.77;;;13.10;;
20456;SDS011;10387;51.102;6.848;2023-06-22T10:46:07;14.85;;;13.48;;
20456;SDS011;10387;51.102;6.848;2023-06-22T10:48:33;15.05;;;13.55;;
20456;SDS011;10387;51.102;6.848;2023-06-22T10:50:59;16.25;;;14.32;;
20456;SDS011;10387;51.102;6.848;2023-06-22T10:53:25;19.75;;;16.95;;
20456;SDS011;10387;51.102;6.848;2023-06-22T10:55:52;18.30;;;16.45;;
20456;SDS011;10387;51.102;6.848;2023-06-22T10:58:19;18.95;;;16.55;;
20456;SDS011;10387;51.102;6.848;2023-06-22T11:00:45;16.20;;;14.50;;
20456;SDS011;10387;51.102;6.848;2023-06-22T11:03:11;18.52;;;16.63;;
20456;SDS011;10387;51.102;6.848;2023-06-22T11:05:39;16.95;;;15.25;;
20456;SDS011;10387;51.102;6.848;2023-06-22T11:08:06;18.25;;;16.50;;
20456;SDS011;10387;51.102;6.848;2023-06-22T11:10:32;20.00;;;17.20;;
20456;SDS011;10387;51.102;6.848;2023-06-22T11:12:58;20.45;;;17.02;;
20456;SDS011;10387;51.102;6.848;2023-06-22T11:15:25;19.20;;;17.30;;
20456;SDS011;10387;51.102;6.848;2023-06-22T11:17:51;18.75;;;16.83;;
20456;SDS011;10387;51.102;6.848;2023-06-22T11:20:17;17.48;;;15.80;;
20456;SDS011;10387;51.102;6.848;2023-06-22T11:22:43;17.50;;;15.77;;
20456;SDS011;10387;51.102;6.848;2023-06-22T11:25:09;18.85;;;15.57;;
20456;SDS011;10387;51.102;6.848;2023-06-22T11:27:37;17.25;;;15.45;;
20456;SDS011;10387;51.102;6.848;2023-06-22T11:30:03;19.45;;;17.40;;
20456;SDS011;10387;51.102;6.848;2023-06-22T11:32:29;19.00;;;17.07;;
20456;SDS011;10387;51.102;6.848;2023-06-22T11:34:56;20.60;;;18.47;;
20456;SDS011;10387;51.102;6.848;2023-06-22T11:37:22;22.10;;;19.15;;
20456;SDS011;10387;51.102;6.848;2023-06-22T11:39:48;22.07;;;19.63;;
20456;SDS011;10387;51.102;6.848;2023-06-22T11:42:14;22.00;;;19.87;;
20456;SDS011;10387;51.102;6.848;2023-06-22T11:44:41;22.27;;;20.07;;
20456;SDS011;10387;51.102;6.848;2023-06-22T11:47:08;24.33;;;21.87;;
20456;SDS011;10387;51.102;6.848;2023-06-22T11:49:34;23.17;;;20.87;;
20456;SDS011;10387;51.102;6.848;2023-06-22T11:52:00;22.47;;;20.17;;
20456;SDS011;10387;51.102;6.848;2023-06-22T11:54:26;24.13;;;21.73;;
20456;SDS011;10387;51.102;6.848;2023-06-22T11:56:52;23.40;;;21.00;;
20456;SDS011;10387;51.102;6.848;2023-06-22T11:59:19;23.93;;;21.50;;
20456;SDS011;10387;51.102;6.848;2023-06-22T12:01:47;21.50;;;19.27;;
20456;SDS011;10387;51.102;6.848;2023-06-22T12:04:15;22.97;;;20.67;;
20456;SDS011;10387;51.102;6.848;2023-06-22T12:06:41;21.27;;;19.13;;
20456;SDS011;10387;51.102;6.848;2023-06-22T12:09:09;22.10;;;20.00;;
20456;SDS011;10387;51.102;6.848;2023-06-22T12:11:35;23.73;;;21.40;;
20456;SDS011;10387;51.102;6.848;2023-06-22T12:14:01;23.93;;;21.37;;
20456;SDS011;10387;51.102;6.848;2023-06-22T12:16:30;23.23;;;20.90;;
20456;SDS011;10387;51.102;6.848;2023-06-22T12:18:56;23.57;;;20.80;;
20456;SDS011;10387;51.102;6.848;2023-06-22T12:21:22;24.47;;;21.97;;
20456;SDS011;10387;51.102;6.848;2023-06-22T12:23:48;24.75;;;22.05;;
20456;SDS011;10387;51.102;6.848;2023-06-22T12:26:15;23.23;;;20.58;;
20456;SDS011;10387;51.102;6.848;2023-06-22T12:28:41;21.97;;;19.87;;
20456;SDS011;10387;51.102;6.848;2023-06-22T12:31:07;21.25;;;18.92;;
20456;SDS011;10387;51.102;6.848;2023-06-22T12:33:33;19.85;;;17.80;;
20456;SDS011;10387;51.102;6.848;2023-06-22T12:35:59;19.13;;;17.13;;
20456;SDS011;10387;51.102;6.848;2023-06-22T12:38:25;18.88;;;16.98;;
20456;SDS011;10387;51.102;6.848;2023-06-22T12:40:51;17.13;;;15.38;;
20456;SDS011;10387;51.102;6.848;2023-06-22T12:43:18;15.27;;;13.77;;
20456;SDS011;10387;51.102;6.848;2023-06-22T12:45:44;15.10;;;13.57;;
20456;SDS011;10387;51.102;6.848;2023-06-22T12:48:10;14.73;;;13.23;;
20456;SDS011;10387;51.102;6.848;2023-06-22T12:50:37;15.43;;;13.93;;
20456;SDS011;10387;51.102;6.848;2023-06-22T12:53:03;14.70;;;12.90;;
20456;SDS011;10387;51.102;6.848;2023-06-22T12:55:31;15.07;;;13.40;;
20456;SDS011;10387;51.102;6.848;2023-06-22T12:57:57;15.80;;;14.20;;
20456;SDS011;10387;51.102;6.848;2023-06-22T13:00:23;16.23;;;14.68;;
20456;SDS011;10387;51.102;6.848;2023-06-22T13:02:49;16.38;;;14.77;;
20456;SDS011;10387;51.102;6.848;2023-06-22T13:05:16;17.60;;;15.02;;
20456;SDS011;10387;51.102;6.848;2023-06-22T13:07:42;17.05;;;15.35;;
20456;SDS011;10387;51.102;6.848;2023-06-22T13:10:08;16.60;;;14.90;;
20456;SDS011;10387;51.102;6.848;2023-06-22T13:12:34;16.95;;;14.93;;
20456;SDS011;10387;51.102;6.848;2023-06-22T13:15:00;17.17;;;15.43;;
20456;SDS011;10387;51.102;6.848;2023-06-22T13:17:28;16.42;;;14.70;;
20456;SDS011;10387;51.102;6.848;2023-06-22T13:19:54;17.42;;;15.70;;
20456;SDS011;10387;51.102;6.848;2023-06-22T13:24:55;18.35;;;16.45;;
20456;SDS011;10387;51.102;6.848;2023-06-22T13:27:21;18.25;;;16.33;;
20456;SDS011;10387;51.102;6.848;2023-06-22T13:29:47;18.05;;;16.42;;
20456;SDS011;10387;51.102;6.848;2023-06-22T13:32:14;17.20;;;15.60;;
20456;SDS011;10387;51.102;6.848;2023-06-22T13:34:40;16.63;;;14.38;;
20456;SDS011;10387;51.102;6.848;2023-06-22T13:37:06;18.05;;;16.30;;
20456;SDS011;10387;51.102;6.848;2023-06-22T13:39:32;17.75;;;16.02;;
20456;SDS011;10387;51.102;6.848;2023-06-22T13:41:58;16.90;;;15.30;;
20456;SDS011;10387;51.102;6.848;2023-06-22T13:44:24;17.83;;;15.95;;
20456;SDS011;10387;51.102;6.848;2023-06-22T13:46:54;17.33;;;15.63;;
20456;SDS011;10387;51.102;6.848;2023-06-22T13:49:20;19.33;;;17.52;;
20456;SDS011;10387;51.102;6.848;2023-06-22T13:51:47;18.85;;;16.95;;
20456;SDS011;10387;51.102;6.848;2023-06-22T13:54:14;18.58;;;16.77;;
20456;SDS011;10387;51.102;6.848;2023-06-22T13:56:40;18.08;;;16.15;;
20456;SDS011;10387;51.102;6.848;2023-06-22T13:59:06;18.52;;;16.73;;
20456;SDS011;10387;51.102;6.848;2023-06-22T14:01:34;16.13;;;14.63;;
20456;SDS011;10387;51.102;6.848;2023-06-22T14:04:00;17.33;;;15.55;;
20456;SDS011;10387;51.102;6.848;2023-06-22T14:06:29;14.98;;;13.52;;
20456;SDS011;10387;51.102;6.848;2023-06-22T14:08:55;16.20;;;14.60;;
20456;SDS011;10387;51.102;6.848;2023-06-22T14:11:21;14.75;;;13.32;;
20456;SDS011;10387;51.102;6.848;2023-06-22T14:13:48;15.00;;;13.50;;
20456;SDS011;10387;51.102;6.848;2023-06-22T14:16:14;15.13;;;13.65;;
20456;SDS011;10387;51.102;6.848;2023-06-22T14:18:40;14.57;;;13.18;;
20456;SDS011;10387;51.102;6.848;2023-06-22T14:21:07;15.55;;;13.93;;
20456;SDS011;10387;51.102;6.848;2023-06-22T14:23:33;14.57;;;13.23;;
20456;SDS011;10387;51.102;6.848;2023-06-22T14:25:59;15.35;;;13.63;;
20456;SDS011;10387;51.102;6.848;2023-06-22T14:28:25;14.77;;;13.30;;
20456;SDS011;10387;51.102;6.848;2023-06-22T14:30:52;16.10;;;14.50;;
20456;SDS011;10387;51.102;6.848;2023-06-22T14:33:21;15.52;;;13.93;;
20456;SDS011;10387;51.102;6.848;2023-06-22T14:35:47;15.60;;;14.05;;
20456;SDS011;10387;51.102;6.848;2023-06-22T14:38:14;15.73;;;14.23;;
20456;SDS011;10387;51.102;6.848;2023-06-22T14:40:40;14.43;;;13.10;;